createdAt,value
2018-04-18T00:01:19.508Z,6.80
2018-04-18T00:03:47.547Z,7.43
2018-04-18T00:06:15.600Z,8.13
2018-04-18T00:08:44.412Z,9.10
2018-04-18T00:11:12.501Z,5.93
2018-04-18T00:13:40.551Z,7.00
2018-04-18T00:16:09.459Z,6.20
2018-04-18T00:18:38.289Z,11.83
2018-04-18T00:21:06.353Z,7.73
2018-04-18T00:23:35.163Z,10.47
2018-04-18T00:26:03.267Z,10.03
2018-04-18T00:28:31.302Z,8.80
2018-04-18T00:30:59.435Z,6.37
2018-04-18T00:33:27.487Z,12.40
2018-04-18T00:35:56.316Z,10.03
2018-04-18T00:38:24.366Z,10.57
2018-04-18T00:40:52.448Z,10.97
2018-04-18T00:43:20.499Z,7.00
2018-04-18T00:45:48.552Z,12.17
2018-04-18T00:48:16.611Z,8.93
2018-04-18T00:50:45.436Z,11.00
2018-04-18T00:53:13.535Z,10.73
2018-04-18T00:55:41.608Z,8.93
2018-04-18T00:58:09.691Z,9.33
2018-04-18T01:00:37.751Z,11.00
2018-04-18T01:03:06.589Z,7.30
2018-04-18T01:05:34.648Z,11.13
2018-04-18T01:08:03.488Z,8.33
2018-04-18T01:10:31.541Z,7.23
2018-04-18T01:13:00.351Z,7.13
2018-04-18T01:15:28.405Z,11.57
2018-04-18T01:17:56.525Z,10.27
2018-04-18T01:20:24.608Z,8.20
2018-04-18T01:22:52.652Z,8.00
2018-04-18T01:25:20.706Z,11.87
2018-04-18T01:27:48.772Z,8.77
2018-04-18T01:30:16.824Z,4.80
2018-04-18T01:32:45.655Z,6.63
2018-04-18T01:35:13.719Z,7.67
2018-04-18T01:37:42.636Z,10.23
2018-04-18T01:40:10.715Z,8.37
2018-04-18T01:42:39.922Z,9.00
2018-04-18T01:45:08.750Z,8.40
2018-04-18T01:47:36.833Z,10.40
2018-04-18T01:50:04.893Z,6.07
2018-04-18T01:52:33.698Z,8.33
2018-04-18T01:55:01.753Z,9.17
2018-04-18T01:57:29.807Z,7.47
2018-04-18T01:59:57.863Z,5.57
2018-04-18T02:02:25.944Z,8.97
2018-04-18T02:04:54.038Z,8.70
2018-04-18T02:07:22.101Z,6.40
2018-04-18T02:09:50.911Z,6.47
2018-04-18T02:12:18.972Z,4.73
2018-04-18T02:14:47.779Z,7.33
2018-04-18T02:17:16.609Z,6.30
2018-04-18T02:19:44.654Z,9.73
2018-04-18T02:22:12.780Z,9.10
2018-04-18T02:24:40.827Z,7.00
2018-04-18T02:27:08.883Z,7.37
2018-04-18T02:29:36.927Z,7.10
2018-04-18T02:32:04.987Z,9.07
2018-04-18T02:34:33.800Z,6.87
2018-04-18T02:37:02.622Z,8.10
2018-04-18T02:39:30.655Z,10.23
2018-04-18T02:41:58.712Z,8.37
2018-04-18T02:44:26.768Z,5.67
2018-04-18T02:46:54.817Z,7.10
2018-04-18T02:49:22.860Z,5.93
2018-04-18T02:51:50.907Z,7.10
2018-04-18T02:54:18.950Z,7.03
2018-04-18T02:56:47.002Z,9.53
2018-04-18T02:59:15.043Z,7.33
2018-04-18T03:01:43.876Z,6.93
2018-04-18T03:04:12.085Z,5.37
2018-04-18T03:06:40.126Z,5.47
2018-04-18T03:09:08.943Z,5.93
2018-04-18T03:11:37.032Z,6.10
2018-04-18T03:14:05.084Z,6.93
2018-04-18T03:16:33.899Z,9.03
2018-04-18T03:19:02.708Z,6.33
2018-04-18T03:21:30.755Z,9.50
2018-04-18T03:23:58.794Z,9.83
2018-04-18T03:26:26.868Z,7.00
2018-04-18T03:28:54.900Z,7.17
2018-04-18T03:31:22.955Z,6.23
2018-04-18T03:33:50.981Z,7.07
2018-04-18T03:36:19.032Z,10.03
2018-04-18T03:38:47.079Z,9.67
2018-04-18T03:41:15.141Z,10.33
2018-04-18T03:43:43.261Z,8.30
2018-04-18T03:46:11.322Z,12.77
2018-04-18T03:48:40.122Z,9.97
2018-04-18T03:51:08.938Z,7.23
2018-04-18T03:53:37.761Z,7.63
2018-04-18T03:56:06.639Z,6.50
2018-04-18T03:58:35.434Z,10.60
2018-04-18T04:01:04.256Z,8.53
2018-04-18T04:03:32.344Z,8.37
2018-04-18T04:06:00.383Z,10.30
2018-04-18T04:08:28.450Z,9.50
2018-04-18T04:10:56.471Z,8.37
2018-04-18T04:13:25.286Z,9.70
2018-04-18T04:15:54.091Z,8.37
2018-04-18T04:18:40.114Z,8.70
2018-04-18T04:21:25.916Z,7.90
2018-04-18T04:27:02.227Z,6.50
2018-04-18T04:29:30.258Z,8.63
2018-04-18T04:31:58.396Z,8.63
2018-04-18T04:34:26.429Z,10.70
2018-04-18T04:36:54.469Z,7.03
2018-04-18T04:39:22.511Z,5.70
2018-04-18T04:41:50.632Z,10.00
2018-04-18T04:44:18.711Z,5.50
2018-04-18T04:46:47.004Z,6.00
2018-04-18T04:49:15.047Z,7.73
2018-04-18T04:51:44.596Z,9.20
2018-04-18T04:54:12.651Z,8.87
2018-04-18T04:56:40.693Z,9.67
2018-04-18T04:59:08.763Z,6.20
2018-04-18T05:01:36.807Z,9.23
2018-04-18T05:04:04.939Z,5.93
2018-04-18T05:06:32.986Z,7.83
2018-04-18T05:09:01.039Z,8.43
2018-04-18T05:11:29.084Z,5.33
2018-04-18T05:13:57.131Z,6.43
2018-04-18T05:16:25.980Z,9.67
2018-04-18T05:18:54.041Z,12.60
2018-04-18T05:21:22.847Z,13.23
2018-04-18T05:23:51.669Z,15.87
2018-04-18T05:26:19.715Z,15.73
2018-04-18T05:28:48.539Z,14.83
2018-04-18T05:31:16.587Z,15.80
2018-04-18T05:33:45.468Z,15.90
2018-04-18T05:36:13.623Z,16.43
2018-04-18T05:38:41.688Z,14.17
2018-04-18T05:41:10.500Z,9.73
2018-04-18T05:43:38.593Z,13.80
2018-04-18T05:46:06.640Z,11.77
2018-04-18T05:48:34.722Z,11.20
2018-04-18T05:51:02.775Z,7.73
2018-04-18T05:53:30.808Z,11.87
2018-04-18T05:55:59.615Z,11.07
2018-04-18T05:58:28.436Z,8.53
2018-04-18T06:00:56.483Z,8.80
2018-04-18T06:03:24.548Z,14.43
2018-04-18T06:05:52.602Z,7.43
2018-04-18T06:08:20.662Z,10.33
2018-04-18T06:10:48.703Z,9.20
2018-04-18T06:13:16.755Z,8.43
2018-04-18T06:15:44.832Z,7.83
2018-04-18T06:18:12.911Z,11.10
2018-04-18T06:20:40.956Z,8.83
2018-04-18T06:23:09.019Z,11.30
2018-04-18T06:25:37.070Z,13.33
2018-04-18T06:28:05.122Z,16.33
2018-04-18T06:30:33.948Z,16.13
2018-04-18T06:33:02.024Z,18.17
2018-04-18T06:35:30.072Z,17.93
2018-04-18T06:37:58.130Z,17.00
2018-04-18T06:40:26.188Z,13.70
2018-04-18T06:42:54.268Z,20.97
2018-04-18T06:45:22.327Z,17.43
2018-04-18T06:47:51.163Z,17.13
2018-04-18T06:50:19.272Z,13.93
2018-04-18T06:52:47.432Z,17.50
2018-04-18T06:55:15.492Z,14.10
2018-04-18T06:57:44.419Z,16.23
2018-04-18T07:00:12.555Z,14.00
2018-04-18T07:02:40.603Z,16.40
2018-04-18T07:05:08.664Z,16.90
2018-04-18T07:07:37.485Z,12.63
2018-04-18T07:10:05.549Z,15.57
2018-04-18T07:12:33.590Z,15.57
2018-04-18T07:15:01.736Z,13.87
2018-04-18T07:17:29.789Z,16.73
2018-04-18T07:19:58.612Z,15.97
2018-04-18T07:22:26.706Z,15.97
2018-04-18T07:24:54.760Z,14.33
2018-04-18T07:27:23.585Z,17.47
2018-04-18T07:29:51.653Z,15.97
2018-04-18T07:32:20.476Z,20.43
2018-04-18T07:34:48.536Z,15.63
2018-04-18T07:37:17.368Z,18.53
2018-04-18T07:39:45.427Z,18.80
2018-04-18T07:42:14.252Z,13.17
2018-04-18T07:44:42.320Z,12.07
2018-04-18T07:47:11.136Z,13.90
2018-04-18T07:49:39.198Z,15.53
2018-04-18T07:52:08.050Z,15.47
2018-04-18T07:54:36.212Z,12.80
2018-04-18T07:57:04.308Z,16.67
2018-04-18T07:59:32.378Z,12.87
2018-04-18T08:02:00.473Z,15.37
2018-04-18T08:04:28.535Z,13.60
2018-04-18T08:06:56.667Z,13.60
2018-04-18T08:09:24.706Z,17.27
2018-04-18T08:11:52.761Z,16.87
2018-04-18T08:14:20.917Z,14.50
2018-04-18T08:16:48.966Z,13.47
2018-04-18T08:19:17.024Z,15.00
2018-04-18T08:21:45.855Z,14.37
2018-04-18T08:24:13.955Z,16.67
2018-04-18T08:26:42.033Z,16.47
2018-04-18T08:29:10.087Z,13.37
2018-04-18T08:31:38.904Z,13.97
2018-04-18T08:34:06.975Z,12.10
2018-04-18T08:36:35.012Z,12.13
2018-04-18T08:39:03.079Z,12.10
2018-04-18T08:41:31.404Z,12.83
2018-04-18T08:43:59.551Z,13.07
2018-04-18T08:46:27.636Z,14.53
2018-04-18T08:48:55.695Z,16.07
2018-04-18T08:51:24.508Z,13.87
2018-04-18T08:53:52.603Z,19.87
2018-04-18T08:56:20.719Z,13.10
2018-04-18T08:58:48.775Z,14.43
2018-04-18T09:01:16.831Z,12.37
2018-04-18T09:03:45.651Z,17.13
2018-04-18T09:06:13.724Z,16.37
2018-04-18T09:08:42.651Z,15.07
2018-04-18T09:11:10.736Z,22.17
2018-04-18T09:13:38.817Z,18.07
2018-04-18T09:16:06.876Z,16.67
2018-04-18T09:18:35.701Z,20.17
2018-04-18T09:21:03.787Z,19.20
2018-04-18T09:23:31.848Z,18.13
2018-04-18T09:26:00.672Z,17.67
2018-04-18T09:28:28.788Z,15.27
2018-04-18T09:30:56.832Z,21.23
2018-04-18T09:33:25.639Z,21.03
2018-04-18T09:35:53.706Z,14.80
2018-04-18T09:38:22.526Z,16.53
2018-04-18T09:40:50.592Z,21.13
2018-04-18T09:43:19.408Z,13.37
2018-04-18T09:45:47.467Z,12.83
2018-04-18T09:48:15.523Z,14.13
2018-04-18T09:50:43.579Z,14.30
2018-04-18T09:53:11.643Z,14.00
2018-04-18T09:55:40.460Z,12.47
2018-04-18T09:58:08.513Z,16.90
2018-04-18T10:00:42.984Z,16.47
2018-04-18T10:03:15.989Z,17.25
2018-04-18T10:05:44.043Z,16.57
2018-04-18T10:08:12.862Z,13.90
2018-04-18T10:10:40.959Z,12.23
2018-04-18T10:13:09.043Z,13.82
2018-04-18T10:15:37.875Z,15.82
2018-04-18T10:18:06.036Z,13.93
2018-04-18T10:20:34.192Z,13.38
2018-04-18T10:23:03.050Z,13.70
2018-04-18T10:25:31.075Z,16.83
2018-04-18T10:27:59.900Z,13.75
2018-04-18T10:30:27.954Z,11.73
2018-04-18T10:32:56.776Z,13.20
2018-04-18T10:35:24.827Z,16.05
2018-04-18T10:37:52.965Z,12.07
2018-04-18T10:40:21.086Z,13.00
2018-04-18T10:42:49.131Z,12.82
2018-04-18T10:45:17.204Z,14.90
2018-04-18T10:47:46.219Z,12.13
2018-04-18T10:50:15.016Z,13.02
2018-04-18T10:52:43.088Z,11.88
2018-04-18T10:55:11.896Z,12.93
2018-04-18T10:57:39.967Z,11.60
2018-04-18T11:00:08.805Z,11.77
2018-04-18T11:02:36.875Z,12.45
2018-04-18T11:05:04.969Z,11.18
2018-04-18T11:07:33.039Z,11.00
2018-04-18T11:10:01.089Z,12.88
2018-04-18T11:12:29.219Z,12.77
2018-04-18T11:14:57.267Z,10.18
2018-04-18T11:17:25.319Z,10.60
2018-04-18T11:19:53.375Z,12.13
2018-04-18T11:22:21.448Z,11.23
2018-04-18T11:24:49.500Z,10.57
2018-04-18T11:27:17.554Z,10.82
2018-04-18T11:29:45.604Z,8.57
2018-04-18T11:32:13.657Z,9.15
2018-04-18T11:34:41.707Z,11.60
2018-04-18T11:37:09.764Z,11.43
2018-04-18T11:39:37.851Z,9.50
2018-04-18T11:42:05.918Z,11.00
2018-04-18T11:44:34.838Z,12.98
2018-04-18T11:47:03.942Z,9.40
2018-04-18T11:49:31.999Z,7.10
2018-04-18T11:52:00.860Z,7.00
2018-04-18T11:54:29.692Z,8.88
2018-04-18T11:56:57.764Z,5.28
2018-04-18T11:59:25.912Z,5.05
2018-04-18T12:01:53.959Z,3.75
2018-04-18T12:04:22.783Z,5.85
2018-04-18T12:06:50.879Z,9.18
2018-04-18T12:09:18.935Z,4.95
2018-04-18T12:11:47.771Z,5.03
2018-04-18T12:14:15.856Z,5.40
2018-04-18T12:16:43.920Z,4.40
2018-04-18T12:19:12.747Z,6.57
2018-04-18T12:21:40.934Z,5.37
2018-04-18T12:24:08.987Z,6.43
2018-04-18T12:26:37.819Z,6.80
2018-04-18T12:29:06.727Z,4.50
2018-04-18T12:31:34.771Z,7.12
2018-04-18T12:34:03.586Z,5.57
2018-04-18T12:36:31.642Z,3.12
2018-04-18T12:38:59.776Z,4.70
2018-04-18T12:41:27.819Z,7.53
2018-04-18T12:43:55.875Z,5.32
2018-04-18T12:46:23.963Z,4.75
2018-04-18T12:48:52.008Z,4.93
2018-04-18T12:51:20.062Z,4.30
2018-04-18T12:53:48.896Z,4.22
2018-04-18T12:56:16.934Z,3.30
2018-04-18T12:58:44.995Z,3.42
2018-04-18T13:01:13.127Z,5.93
2018-04-18T13:03:41.218Z,5.25
2018-04-18T13:06:10.038Z,2.92
2018-04-18T13:08:38.096Z,4.57
2018-04-18T13:11:06.903Z,4.40
2018-04-18T13:13:35.795Z,3.90
2018-04-18T13:16:04.616Z,5.00
2018-04-18T13:18:33.435Z,3.30
2018-04-18T13:21:01.496Z,6.00
2018-04-18T13:23:30.316Z,3.92
2018-04-18T13:25:58.381Z,3.70
2018-04-18T13:28:27.201Z,4.53
2018-04-18T13:30:56.132Z,3.40
2018-04-18T13:33:24.196Z,4.93
2018-04-18T13:35:52.250Z,5.87
2018-04-18T13:38:21.059Z,7.10
2018-04-18T13:40:49.887Z,4.75
2018-04-18T13:43:17.930Z,3.28
2018-04-18T13:45:45.990Z,6.87
2018-04-18T13:48:14.063Z,5.10
2018-04-18T13:50:42.119Z,5.75
2018-04-18T13:53:10.169Z,3.70
2018-04-18T13:55:39.013Z,4.40
2018-04-18T13:58:07.092Z,3.67
2018-04-18T14:00:35.903Z,3.25
2018-04-18T14:03:03.988Z,3.47
2018-04-18T14:05:32.043Z,4.45
2018-04-18T14:08:00.866Z,3.55
2018-04-18T14:10:28.919Z,3.65
2018-04-18T14:12:57.727Z,4.68
2018-04-18T14:15:26.553Z,4.55
2018-04-18T14:17:54.603Z,5.37
2018-04-18T14:20:22.659Z,5.32
2018-04-18T14:22:50.812Z,3.97
2018-04-18T14:25:18.875Z,5.00
2018-04-18T14:27:47.684Z,4.32
2018-04-18T14:30:16.507Z,5.30
2018-04-18T14:32:44.556Z,3.97
2018-04-18T14:35:13.470Z,3.17
2018-04-18T14:37:42.291Z,4.57
2018-04-18T14:40:10.343Z,3.65
2018-04-18T14:42:38.731Z,4.72
2018-04-18T14:45:06.778Z,2.92
2018-04-18T14:47:34.818Z,3.58
2018-04-18T14:50:03.626Z,5.82
2018-04-18T14:52:31.679Z,6.87
2018-04-18T14:55:01.235Z,4.70
2018-04-18T14:57:29.300Z,4.68
2018-04-18T14:59:58.223Z,6.90
2018-04-18T15:02:26.290Z,3.87
2018-04-18T15:04:54.323Z,3.58
2018-04-18T15:07:22.394Z,4.15
2018-04-18T15:09:50.442Z,5.43
2018-04-18T15:12:19.263Z,4.87
2018-04-18T15:14:47.367Z,4.82
2018-04-18T15:17:15.438Z,6.95
2018-04-18T15:19:43.488Z,7.00
2018-04-18T15:22:11.543Z,8.07
2018-04-18T15:24:39.596Z,6.82
2018-04-18T15:27:07.654Z,6.47
2018-04-18T15:29:36.488Z,4.40
2018-04-18T15:32:04.553Z,8.10
2018-04-18T15:34:33.375Z,5.35
2018-04-18T15:37:01.427Z,7.05
2018-04-18T15:39:30.245Z,6.57
2018-04-18T15:41:59.150Z,11.95
2018-04-18T15:44:27.972Z,5.43
2018-04-18T15:46:56.072Z,10.00
2018-04-18T15:49:24.119Z,9.98
2018-04-18T15:51:52.200Z,6.97
2018-04-18T15:54:21.019Z,4.10
2018-04-18T15:56:49.079Z,4.22
2018-04-18T15:59:17.904Z,4.57
2018-04-18T16:01:45.972Z,6.68
2018-04-18T16:04:14.793Z,4.30
2018-04-18T16:06:42.883Z,4.50
2018-04-18T16:09:10.919Z,3.67
2018-04-18T16:11:38.980Z,4.90
2018-04-18T16:14:07.030Z,5.37
2018-04-18T16:16:35.084Z,5.15
2018-04-18T16:19:03.218Z,4.95
2018-04-18T16:21:31.271Z,6.72
2018-04-18T16:24:00.088Z,4.87
2018-04-18T16:26:28.154Z,5.95
2018-04-18T16:28:56.980Z,4.70
2018-04-18T16:31:25.061Z,3.62
2018-04-18T16:33:53.115Z,6.43
2018-04-18T16:36:21.941Z,4.85
2018-04-18T16:38:50.004Z,5.43
2018-04-18T16:41:18.823Z,3.40
2018-04-18T16:43:46.920Z,4.43
2018-04-18T16:46:15.179Z,7.25
2018-04-18T16:48:43.999Z,7.62
2018-04-18T16:51:12.096Z,5.15
2018-04-18T16:53:40.159Z,3.78
2018-04-18T16:56:08.976Z,7.85
2018-04-18T16:58:37.026Z,7.25
2018-04-18T17:01:05.123Z,10.27
2018-04-18T17:03:33.945Z,7.78
2018-04-18T17:06:01.996Z,8.07
2018-04-18T17:08:30.128Z,7.50
2018-04-18T17:10:58.176Z,9.75
2018-04-18T17:13:27.003Z,5.72
2018-04-18T17:15:55.047Z,5.03
2018-04-18T17:18:23.184Z,6.25
2018-04-18T17:20:51.235Z,5.50
2018-04-18T17:23:20.071Z,5.12
2018-04-18T17:25:48.119Z,6.35
2018-04-18T17:28:16.949Z,7.28
2018-04-18T17:30:44.994Z,4.03
2018-04-18T17:33:13.047Z,7.70
2018-04-18T17:35:41.121Z,3.72
2018-04-18T17:38:09.177Z,4.13
2018-04-18T17:40:38.001Z,4.53
2018-04-18T17:43:06.095Z,5.03
2018-04-18T17:45:34.146Z,3.80
2018-04-18T17:48:02.969Z,5.07
2018-04-18T17:50:31.074Z,7.97
2018-04-18T17:52:59.129Z,6.23
2018-04-18T17:55:27.179Z,5.97
2018-04-18T17:57:56.000Z,4.43
2018-04-18T18:00:24.819Z,4.23
2018-04-18T18:02:52.885Z,5.60
2018-04-18T18:05:20.932Z,4.33
2018-04-18T18:07:48.983Z,5.13
2018-04-18T18:10:17.047Z,4.83
2018-04-18T18:12:45.867Z,5.13
2018-04-18T18:15:13.959Z,5.00
2018-04-18T18:17:42.018Z,4.97
2018-04-18T18:20:10.835Z,3.90
2018-04-18T18:22:38.892Z,4.93
2018-04-18T18:25:06.937Z,8.33
2018-04-18T18:27:34.989Z,18.70
2018-04-18T18:30:03.056Z,10.23
2018-04-18T18:32:32.080Z,6.73
2018-04-18T18:35:00.148Z,4.07
2018-04-18T18:37:28.963Z,6.20
2018-04-18T18:39:57.021Z,4.37
2018-04-18T18:42:25.144Z,8.63
2018-04-18T18:44:53.211Z,4.43
2018-04-18T18:47:21.290Z,4.23
2018-04-18T18:49:50.229Z,8.07
2018-04-18T18:52:19.011Z,3.93
2018-04-18T18:54:47.068Z,4.50
2018-04-18T18:57:15.878Z,5.77
2018-04-18T18:59:44.811Z,8.03
2018-04-18T19:02:12.899Z,6.60
2018-04-18T19:04:40.960Z,5.70
2018-04-18T19:07:09.787Z,5.03
2018-04-18T19:09:37.835Z,4.93
2018-04-18T19:12:06.703Z,4.37
2018-04-18T19:14:34.869Z,5.77
2018-04-18T19:17:02.925Z,4.73
2018-04-18T19:19:31.744Z,6.13
2018-04-18T19:21:59.791Z,6.57
2018-04-18T19:24:27.846Z,7.07
2018-04-18T19:26:55.888Z,4.57
2018-04-18T19:29:23.939Z,6.93
2018-04-18T19:31:51.991Z,5.60
2018-04-18T19:34:20.035Z,4.77
2018-04-18T19:36:48.079Z,6.33
2018-04-18T19:39:16.141Z,6.67
2018-04-18T19:41:44.183Z,7.30
2018-04-18T19:44:13.003Z,8.30
2018-04-18T19:46:41.068Z,6.53
2018-04-18T19:49:09.996Z,7.67
2018-04-18T19:51:38.043Z,5.33
2018-04-18T19:54:06.085Z,6.37
2018-04-18T19:56:34.207Z,4.90
2018-04-18T19:59:03.035Z,6.63
2018-04-18T20:01:31.137Z,7.10
2018-04-18T20:03:59.216Z,6.97
2018-04-18T20:06:28.052Z,5.23
2018-04-18T20:08:56.115Z,9.03
2018-04-18T20:11:24.188Z,8.30
2018-04-18T20:13:52.232Z,7.97
2018-04-18T20:16:21.792Z,6.73
2018-04-18T20:18:49.883Z,6.90
2018-04-18T20:21:17.963Z,7.67
2018-04-18T20:23:46.015Z,7.20
2018-04-18T20:26:14.143Z,8.47
2018-04-18T20:28:42.183Z,4.90
2018-04-18T20:31:11.846Z,5.73
2018-04-18T20:33:39.889Z,8.47
2018-04-18T20:36:08.013Z,5.40
2018-04-18T20:38:36.054Z,6.83
2018-04-18T20:41:04.105Z,5.80
2018-04-18T20:43:32.149Z,7.30
2018-04-18T20:46:00.252Z,5.77
2018-04-18T20:48:28.302Z,7.17
2018-04-18T20:50:57.132Z,5.73
2018-04-18T20:53:25.175Z,4.93
2018-04-18T20:55:54.843Z,5.83
2018-04-18T20:58:22.903Z,8.17
2018-04-18T21:00:51.724Z,7.63
2018-04-18T21:03:19.815Z,5.80
2018-04-18T21:05:47.871Z,6.10
2018-04-18T21:08:16.696Z,5.90
2018-04-18T21:10:44.797Z,8.13
2018-04-18T21:13:12.840Z,7.70
2018-04-18T21:15:41.659Z,7.40
2018-04-18T21:18:09.707Z,6.37
2018-04-18T21:20:37.888Z,4.97
2018-04-18T21:23:05.958Z,5.97
2018-04-18T21:25:33.994Z,6.20
2018-04-18T21:28:02.911Z,6.67
2018-04-18T21:30:30.962Z,4.47
2018-04-18T21:32:59.015Z,7.00
2018-04-18T21:35:27.075Z,6.53
2018-04-18T21:37:55.120Z,4.70
2018-04-18T21:40:23.951Z,6.00
2018-04-18T21:42:52.013Z,6.70
2018-04-18T21:45:20.060Z,6.70
2018-04-18T21:47:48.214Z,6.20
2018-04-18T21:50:16.267Z,6.43
2018-04-18T21:52:45.095Z,6.27
2018-04-18T21:55:13.149Z,5.63
2018-04-18T21:57:41.195Z,7.07
2018-04-18T22:00:09.248Z,10.10
2018-04-18T22:02:37.302Z,6.43
2018-04-18T22:05:06.119Z,7.07
2018-04-18T22:07:35.046Z,7.13
2018-04-18T22:10:03.094Z,7.37
2018-04-18T22:12:31.931Z,9.27
2018-04-18T22:14:59.975Z,4.53
2018-04-18T22:17:28.032Z,6.83
2018-04-18T22:19:56.080Z,5.67
2018-04-18T22:22:24.168Z,6.63
2018-04-18T22:24:52.216Z,9.07
2018-04-18T22:27:21.041Z,6.63
2018-04-18T22:29:49.846Z,6.30
2018-04-18T22:32:18.044Z,6.13
2018-04-18T22:34:46.944Z,8.30
2018-04-18T22:37:15.008Z,7.17
2018-04-18T22:39:43.841Z,7.93
2018-04-18T22:42:11.887Z,7.53
2018-04-18T22:44:40.721Z,7.40
2018-04-18T22:47:08.816Z,6.63
2018-04-18T22:49:37.000Z,8.40
2018-04-18T22:52:05.103Z,6.87
2018-04-18T22:54:33.159Z,4.40
2018-04-18T22:57:01.219Z,10.00
2018-04-18T22:59:30.023Z,5.57
2018-04-18T23:01:58.958Z,5.90
2018-04-18T23:04:27.040Z,4.30
2018-04-18T23:06:55.133Z,7.80
2018-04-18T23:09:23.175Z,7.27
2018-04-18T23:11:51.995Z,5.13
2018-04-18T23:14:20.915Z,4.53
2018-04-18T23:16:49.003Z,4.77
2018-04-18T23:19:17.052Z,7.10
2018-04-18T23:21:45.101Z,5.97
2018-04-18T23:24:13.146Z,4.60
2018-04-18T23:26:41.202Z,5.43
2018-04-18T23:29:10.019Z,6.83
2018-04-18T23:31:38.837Z,4.37
2018-04-18T23:34:06.923Z,5.00
2018-04-18T23:36:34.973Z,6.07
2018-04-18T23:39:03.025Z,5.87
2018-04-18T23:41:31.075Z,7.23
2018-04-18T23:43:59.120Z,5.30
2018-04-18T23:46:27.175Z,7.00
2018-04-18T23:48:55.285Z,4.30
2018-04-18T23:51:23.299Z,5.90
2018-04-18T23:53:52.182Z,5.47
2018-04-18T23:56:20.231Z,8.17
2018-04-18T23:58:48.296Z,4.17
